Flight Track Log - Related Links

Times and Time Zones

All times are in EDT time to prevent confusion due to time zone crossing. See the N5101S flight status page for this flight to view local times or setup timezone preferences in your user account.

Time Position Orientation Groundspeed Altitude Reporting Facility
EDT Latitude Longitude Course Direction KTS MPH feet Rate Location/Type
Mon 12:21:49 PM 30.1747 -98.8242 90° East 98 113 4,100  Level Houston Center
Mon 12:22:28 PM 30.1814 -98.8047 68° East 116 133 4,400 484 Climbing Houston Center
Mon 12:22:51 PM 30.1903 -98.7931 49° Northeast 122 140 4,600 456 Climbing Houston Center
Mon 12:23:47 PM 30.1900 -98.7603 91° East 105 121 5,000 432 Climbing Houston Center
Mon 12:24:00 PM 30.2499 -98.6509 83° East  Level FlightAware Approximate
Mon 12:24:56 PM 30.1842 -98.7236 100° East 105 121 5,500  Level Houston Center
Mon 12:25:00 PM 30.2500 -98.6092 90° East  Level FlightAware Approximate
Mon 12:25:48 PM 30.1778 -98.6939 104° East 105 121 5,900  Level Houston Center
Mon 12:26:00 PM 30.2500 -98.5675 90° East  Level FlightAware Approximate
Mon 12:27:00 PM 30.1697 -98.6561 104° East 110 127 6,300  Level Houston Center
Mon 12:28:02 PM 30.1611 -98.6144 103° East 115 132 6,700 344 Climbing Houston Center
Mon 12:29:02 PM 30.1467 -98.5842 119° Southeast 109 125 7,000 149 Climbing Houston Center
Mon 12:30:03 PM 30.1414 -98.5461 99° East 123 142 7,000  Level Houston Center
Mon 12:31:08 PM 30.1369 -98.4992 96° East 132 152 7,000  Level Houston Center
Mon 12:32:10 PM 30.1283 -98.4567 103° East 140 161 7,000  Level Houston Center
Mon 12:33:12 PM 30.1192 -98.4139 104° East 133 153 7,000  Level Houston Center
Mon 12:34:14 PM 30.1094 -98.3683 104° East 137 158 7,000  Level Houston Center
Mon 12:35:17 PM 30.0994 -98.3225 104° East 137 158 7,000  Level Houston Center
Mon 12:36:19 PM 30.0922 -98.2817 102° East 132 152 7,000  Level Houston Center
Mon 12:37:21 PM 30.0825 -98.2372 104° East 133 153 7,000  Level Houston Center
Mon 12:38:23 PM 30.0736 -98.1961 104° East 132 152 7,000  Level Houston Center
Mon 12:39:25 PM 30.0647 -98.1542 104° East 133 153 7,000  Level Houston Center
Mon 12:40:27 PM 30.0550 -98.1094 104° East 134 154 7,000  Level Houston Center
Mon 12:41:29 PM 30.0469 -98.0669 102° East 134 154 7,000  Level Houston Center
Mon 12:42:31 PM 30.0367 -98.0211 105° East 137 158 7,000  Level Houston Center
Mon 12:43:33 PM 30.0278 -97.9797 104° East 134 154 7,000  Level Houston Center
Mon 12:44:35 PM 30.0183 -97.9342 103° East 136 157 7,000  Level Houston Center
Mon 12:45:37 PM 30.0089 -97.8925 105° East 135 155 7,000  Level Houston Center
Mon 12:46:40 PM 30.0006 -97.8503 103° East 135 155 7,000  Level Houston Center
Mon 12:47:42 PM 29.9903 -97.8053 105° East 135 155 7,000  Level Houston Center
Mon 12:48:44 PM 29.9814 -97.7647 104° East 133 153 7,000  Level Houston Center
Mon 12:49:46 PM 29.9728 -97.7219 103° East 127 146 7,000  Level Houston Center
Mon 12:50:48 PM 29.9639 -97.6792 103° East 135 155 7,000  Level Houston Center
Mon 12:51:50 PM 29.9539 -97.6369 105° East 129 148 7,000  Level Houston Center
Mon 12:52:52 PM 29.9456 -97.5936 103° East 137 158 7,000  Level Houston Center
Mon 12:53:54 PM 29.9350 -97.5508 106° East 130 150 7,000  Level Houston Center
Mon 12:54:56 PM 29.9283 -97.5144 102° East 134 154 7,000  Level Houston Center
Mon 12:55:58 PM 29.9175 -97.4639 104° East 136 157 7,000  Level Houston Center
Mon 12:57:00 PM 29.9083 -97.4219 104° East 135 155 7,000  Level Houston Center
Mon 12:58:03 PM 29.8997 -97.3808 104° East 133 153 7,000  Level Houston Center
Mon 12:59:05 PM 29.8903 -97.3403 105° East 132 152 7,000  Level Houston Center
Mon 01:00:07 PM 29.8814 -97.3008 105° East 129 148 7,000  Level Houston Center
Mon 01:01:09 PM 29.8725 -97.2581 103° East 133 153 7,000  Level Houston Center
Mon 01:02:11 PM 29.8617 -97.2089 104° East 133 153 7,000  Level Houston Center
Mon 01:03:13 PM 29.8522 -97.1667 104° East 136 157 7,000  Level Houston Center
Mon 01:04:15 PM 29.8431 -97.1256 104° East 134 154 7,000  Level Houston Center
Mon 01:04:36 PM 29.8389 -97.1106 108° East 132 152 7,000  Level Houston Center
Mon 01:05:17 PM 29.8344 -97.0836 101° East 135 155 7,000  Level Houston Center
Mon 01:06:07 PM 29.8256 -97.0469 106° East 135 155 7,000  Level Houston Center
Mon 01:07:09 PM 29.8158 -97.0022 104° East 136 157 7,000  Level Houston Center
Mon 01:08:16 PM 29.8078 -96.9550 101° East 134 154 7,000  Level Houston Center
Mon 01:09:06 PM 29.8111 -96.9186 84° East 141 162 7,000  Level Houston Center
Mon 01:09:25 PM 29.8108 -96.9039 91° East 140 161 7,000  Level Houston Center
Mon 01:10:13 PM 29.8094 -96.8706 93° East 138 159 7,000  Level Houston Center
Mon 01:11:20 PM 29.8117 -96.8200 87° East 138 159 7,000  Level Houston Center
Mon 01:12:31 PM 29.8119 -96.7703 90° East 143 165 7,000  Level Houston Center
Mon 01:13:33 PM 29.8128 -96.7267 89° East 138 159 7,000  Level Houston Center
Mon 01:14:18 PM 29.8117 -96.6900 92° East 136 157 7,000  Level Houston Center
Mon 01:14:35 PM 29.8133 -96.6831 75° East 137 158 7,000  Level Houston Center
Mon 01:15:19 PM 29.8122 -96.6442 92° East 137 158 7,000  Level Houston Center
Mon 01:15:37 PM 29.8133 -96.6297 85° East 139 160 7,000  Level Houston Center
Mon 01:16:27 PM 29.8122 -96.5939 92° East 136 157 7,000  Level Houston Center
Mon 01:17:28 PM 29.8128 -96.5506 89° East 140 161 7,000 -103 Level Houston Center
Mon 01:18:23 PM 29.8133 -96.5069 89° East 141 162 6,800 -240 Descending Houston Center
Mon 01:18:43 PM 29.8144 -96.4958 83° East 143 165 6,700 -290 Descending Houston Center
Mon 01:19:25 PM 29.8133 -96.4567 92° East 151 174 6,500 -290 Descending Houston Center
Mon 01:19:45 PM 29.8142 -96.4481 84° East 148 170 6,400 -393 Descending Houston Center
Mon 01:20:26 PM 29.8136 -96.4083 91° East 154 177 6,100 -290 Descending Houston Center
Mon 01:20:47 PM 29.8144 -96.3975 85° East 156 180 6,100 -295 Level Houston Center
Mon 01:21:27 PM 29.8136 -96.3578 91° East 151 174 5,800 -387 Descending Houston Center
Mon 01:21:49 PM 29.8153 -96.3414 83° East 147 169 5,700 -353 Descending Houston Center
Mon 01:22:35 PM 29.8153 -96.3047 90° East 147 169 5,400 -387 Descending Houston Center
Mon 01:22:51 PM 29.8161 -96.2947 85° East 145 167 5,300 -393 Descending Houston Center
Mon 01:23:36 PM 29.8156 -96.2567 91° East 148 170 5,000 -290 Descending Houston Center
Mon 01:23:53 PM 29.8164 -96.2461 85° East 151 174 5,000  Level Houston Center
Mon 01:24:32 PM 29.8142 -96.2158 95° East 139 160 5,000  Level Houston Center
Mon 01:24:55 PM 29.8156 -96.2025 83° East 139 160 5,000  Level Houston Center
Mon 01:25:33 PM 29.8147 -96.1725 92° East 134 154 5,000  Level Houston Center
Mon 01:25:57 PM 29.8164 -96.1603 81° East 134 154 5,000 -98 Level Houston Center
Mon 01:26:34 PM 29.8150 -96.1267 93° East 140 161 4,900 -97 Descending Houston Center
Mon 01:26:59 PM 29.8156 -96.1144 87° East 141 162 4,900 -387 Level Houston Center
Mon 01:27:36 PM 29.8150 -96.0786 91° East 150 173 4,500 -484 Descending Houston Center
Mon 01:28:01 PM 29.8164 -96.0661 83° East 152 175 4,400 -393 Descending Houston Center
Mon 01:28:37 PM 29.8147 -96.0281 93° East 152 175 4,100 -387 Descending Houston Center
Mon 01:29:03 PM 29.8161 -96.0089 85° East 150 173 4,000 -194 Descending Houston Center
Mon 01:29:39 PM 29.8172 -95.9822 87° East 139 160 3,900 -387 Descending Houston Center
Mon 01:30:05 PM 29.8172 -95.9628 90° East 142 163 3,600 -700 Descending Houston Center
Mon 01:30:39 PM 29.8169 -95.9317 91° East 153 176 3,200 -677 Descending Houston Center
Mon 01:31:07 PM 29.8169 -95.9136 90° East 150 173 2,900 -197 Descending Houston Center
Mon 01:31:40 PM 29.8175 -95.8883 89° East 127 146 3,000 97 Climbing Houston Center
Mon 01:32:09 PM 29.8172 -95.8722 91° East 137 158 3,000  Level Houston Center
Mon 01:33:11 PM 29.8175 -95.8325 90° East 134 154 3,000  Level Houston Center

Login

Don't have an account? Register now (free) for customized features, flight alerts, and more!